Time;durP1;ratioP1;P1;durP2;ratioP2;P2;SDS_P1;SDS_P2;PMS_P1;PMS_P2;Temp;Humidity;BMP_temperature;BMP_pressure;BME280_temperature;BME280_humidity;BME280_pressure;Samples;Min_cycle;Max_cycle;Signal;HPM_P1;HPM_P2
2021/12/04 00:01:54;;;;;;;1.42;1.17;;;;;;;4.86;73.57;98036.31;5047544;28;20044;-76
2021/12/04 00:04:32;;;;;;;1.17;1.08;;;;;;;4.85;72.92;98035.47;5048404;28;20048;-75
2021/12/04 00:06:58;;;;;;;1.13;1.00;;;;;;;4.78;73.14;98039.34;5039478;28;20488;-75
2021/12/04 00:09:23;;;;;;;4.35;1.30;;;;;;;4.82;73.61;98038.22;5048665;28;20116;-75
2021/12/04 00:11:58;;;;;;;1.23;1.05;;;;;;;4.87;73.33;98027.53;5047272;28;20044;-75
2021/12/04 00:14:24;;;;;;;1.02;0.98;;;;;;;4.88;73.90;98024.00;5037453;28;20055;-77
2021/12/04 00:16:50;;;;;;;3.05;1.00;;;;;;;4.88;73.95;98024.00;5035779;28;20116;-77
2021/12/04 00:19:15;;;;;;;1.77;1.20;;;;;;;4.88;73.57;98024.84;5032580;28;20124;-76
2021/12/04 00:21:41;;;;;;;0.82;0.82;;;;;;;4.85;73.97;98021.53;5015780;28;20056;-75
2021/12/04 00:24:06;;;;;;;1.38;1.27;;;;;;;4.83;74.43;98024.25;5049496;28;20044;-76
2021/12/04 00:26:32;;;;;;;1.50;1.17;;;;;;;4.83;74.59;98015.59;5048889;28;20037;-76
2021/12/04 00:28:57;;;;;;;1.23;1.10;;;;;;;4.82;74.94;98008.66;5050493;28;20075;-76
2021/12/04 00:31:23;;;;;;;1.42;1.10;;;;;;;4.79;75.17;98012.28;5013851;28;20087;-75
2021/12/04 00:33:49;;;;;;;1.52;1.00;;;;;;;4.78;75.37;98001.94;5049304;28;20052;-76
2021/12/04 00:49:48;;;;;;;3.50;1.00;;;;;;;4.63;76.42;97980.13;5047127;28;20059;-75
2021/12/04 00:52:13;;;;;;;1.35;1.17;;;;;;;4.58;76.82;97969.06;5012348;28;20512;-76
2021/12/04 00:54:39;;;;;;;1.23;1.00;;;;;;;4.57;77.22;97981.28;5047067;28;20706;-76
2021/12/04 00:57:04;;;;;;;1.70;1.25;;;;;;;4.57;77.23;97975.22;5028576;28;20424;-75
2021/12/04 00:59:29;;;;;;;2.35;1.30;;;;;;;4.55;77.66;97980.50;5028989;28;20037;-75
2021/12/04 01:01:55;;;;;;;2.03;1.30;;;;;;;4.52;77.94;97965.03;5047271;28;20095;-75
2021/12/04 01:04:21;;;;;;;1.67;1.10;;;;;;;4.54;78.13;97959.75;5047187;28;20040;-76
2021/12/04 01:06:47;;;;;;;1.10;1.00;;;;;;;4.50;78.34;97959.06;5046753;28;20662;-75
2021/12/04 01:09:14;;;;;;;1.45;1.15;;;;;;;4.52;78.38;97958.03;5046905;28;20041;-75
2021/12/04 01:11:42;;;;;;;3.67;1.52;;;;;;;4.52;78.34;97958.03;5047288;28;20052;-74
2021/12/04 01:14:09;;;;;;;1.80;1.40;;;;;;;4.46;79.24;97947.94;5028903;28;20056;-75
2021/12/04 01:16:35;;;;;;;4.10;1.85;;;;;;;4.48;79.40;97935.66;5046525;28;20100;-75
2021/12/04 01:19:00;;;;;;;1.42;1.10;;;;;;;4.52;79.28;97939.78;5046515;28;20045;-75
2021/12/04 01:21:26;;;;;;;1.30;1.20;;;;;;;4.55;78.89;97951.81;5047506;28;20068;-76
2021/12/04 01:23:51;;;;;;;1.88;1.27;;;;;;;4.55;79.38;97935.31;5050514;28;20036;-76
2021/12/04 01:26:16;;;;;;;1.35;1.10;;;;;;;4.56;79.53;97931.81;5049708;28;20403;-76
2021/12/04 01:28:42;;;;;;;1.42;1.20;;;;;;;4.59;79.45;97921.19;5032538;28;20514;-76
2021/12/04 01:31:07;;;;;;;1.90;1.20;;;;;;;4.56;79.12;97926.59;5032598;28;20124;-76
2021/12/04 01:33:33;;;;;;;1.05;0.90;;;;;;;4.54;79.22;97931.88;5050522;28;20068;-76
2021/12/04 01:35:59;;;;;;;1.00;0.90;;;;;;;4.53;79.28;97927.59;5049565;28;20480;-74
2021/12/04 01:38:24;;;;;;;0.98;0.90;;;;;;;4.54;79.40;97924.03;5051180;28;20041;-75
2021/12/04 01:40:49;;;;;;;0.98;0.90;;;;;;;4.56;79.50;97927.41;5032611;28;20037;-75
2021/12/04 01:43:15;;;;;;;1.08;0.98;;;;;;;4.57;79.22;97923.88;5049953;28;20041;-76
2021/12/04 01:45:40;;;;;;;2.45;1.00;;;;;;;4.54;79.87;97918.00;5032053;28;20507;-75
2021/12/04 01:48:06;;;;;;;1.20;1.08;;;;;;;4.54;79.94;97910.16;5050006;28;20523;-75
2021/12/04 01:50:33;;;;;;;1.17;0.98;;;;;;;4.54;80.21;97899.72;5050000;28;20037;-75
2021/12/04 01:53:00;;;;;;;1.65;1.20;;;;;;;4.56;80.34;97890.88;5049629;28;20044;-75
2021/12/04 01:55:32;;;;;;;2.42;1.15;;;;;;;4.54;80.21;97895.34;5049609;28;20048;-75
2021/12/04 01:58:00;;;;;;;1.52;1.10;;;;;;;4.50;80.61;97899.91;5050305;28;20082;-74
2021/12/04 02:00:27;;;;;;;1.10;1.00;;;;;;;4.47;81.04;97899.22;5011642;28;20041;-75
2021/12/04 02:02:52;;;;;;;1.60;1.20;;;;;;;4.41;81.55;97904.78;5025374;28;20044;-76
2021/12/04 02:05:18;;;;;;;1.15;1.00;;;;;;;4.44;81.22;97907.22;5031484;28;20120;-75
2021/12/04 02:07:45;;;;;;;1.50;1.02;;;;;;;4.44;81.26;97894.16;5025108;28;20048;-75
2021/12/04 02:10:11;;;;;;;1.10;0.90;;;;;;;4.45;81.33;97886.25;5069774;28;20064;-76
2021/12/04 02:12:36;;;;;;;2.53;1.20;;;;;;;4.49;81.36;97884.31;5052333;28;20111;-76
2021/12/04 02:15:03;;;;;;;1.17;1.05;;;;;;;4.50;80.56;97889.47;5069450;28;20039;-76
2021/12/04 02:17:28;;;;;;;1.20;1.00;;;;;;;4.52;80.59;97884.13;5051449;28;20050;-76
2021/12/04 02:19:53;;;;;;;1.00;0.85;;;;;;;4.51;80.89;97880.69;5019125;28;20555;-75
2021/12/04 02:22:19;;;;;;;1.00;0.90;;;;;;;4.50;80.60;97875.56;5069817;28;20046;-75
2021/12/04 02:24:44;;;;;;;1.02;0.98;;;;;;;4.49;80.85;97866.88;5069816;28;20115;-74
2021/12/04 02:27:13;;;;;;;1.00;0.93;;;;;;;4.48;80.59;97857.38;5051116;28;20040;-76
2021/12/04 02:29:46;;;;;;;1.45;1.17;;;;;;;4.47;80.47;97854.84;5069780;28;20546;-75
2021/12/04 02:32:12;;;;;;;0.80;0.80;;;;;;;4.49;80.71;97858.22;5069694;28;20043;-75
2021/12/04 02:34:38;;;;;;;1.85;1.58;;;;;;;4.48;80.80;97853.94;5069463;28;20044;-75
2021/12/04 02:37:03;;;;;;;1.02;0.90;;;;;;;4.49;81.05;97846.00;5068494;28;20056;-75
2021/12/04 02:39:33;;;;;;;2.10;1.30;;;;;;;4.47;80.83;97854.84;5069264;28;20060;-75
2021/12/04 02:42:00;;;;;;;0.80;0.80;;;;;;;4.46;80.34;97853.19;5034671;28;20040;-77
2021/12/04 02:44:37;;;;;;;0.70;0.70;;;;;;;4.50;80.49;97854.69;5069634;28;20488;-76
2021/12/04 02:47:03;;;;;;;0.70;0.70;;;;;;;4.51;80.64;97843.34;5068181;28;20043;-76
2021/12/04 02:49:28;;;;;;;0.77;0.77;;;;;;;4.51;79.93;97836.34;5069108;28;20036;-75
2021/12/04 02:51:54;;;;;;;0.70;0.70;;;;;;;4.52;80.32;97829.34;5051488;28;20506;-75
2021/12/04 02:54:19;;;;;;;0.75;0.75;;;;;;;4.52;80.05;97826.72;5068599;28;20028;-75
2021/12/04 02:56:45;;;;;;;0.70;0.70;;;;;;;4.49;79.94;97821.69;5067838;28;20037;-74
2021/12/04 02:59:12;;;;;;;0.70;0.70;;;;;;;4.51;80.35;97819.84;5068770;28;20062;-74
2021/12/04 03:01:40;;;;;;;0.70;0.70;;;;;;;4.52;80.53;97811.09;5066925;28;20055;-74
2021/12/04 03:04:08;;;;;;;0.95;0.95;;;;;;;4.52;80.04;97814.53;5068825;28;20475;-77
2021/12/04 03:06:42;;;;;;;0.70;0.70;;;;;;;4.49;80.33;97804.28;5067805;28;20036;-76
2021/12/04 03:09:08;;;;;;;0.60;0.60;;;;;;;4.49;80.26;97800.81;5050497;28;20037;-76
2021/12/04 03:11:33;;;;;;;0.80;0.80;;;;;;;4.49;80.27;97806.88;5030777;28;20033;-76
2021/12/04 03:13:59;;;;;;;1.05;0.75;;;;;;;4.54;80.16;97792.75;5048684;28;20045;-75
2021/12/04 03:16:25;;;;;;;0.77;0.77;;;;;;;4.54;80.36;97785.75;5048414;28;20033;-76
2021/12/04 03:18:50;;;;;;;0.80;0.80;;;;;;;4.52;80.30;97785.81;5030398;28;20041;-76
2021/12/04 03:21:16;;;;;;;0.70;0.70;;;;;;;4.55;79.82;97782.19;5014594;28;21543;-76
2021/12/04 03:23:52;;;;;;;0.65;0.65;;;;;;;4.50;79.68;97774.66;5049069;28;20179;-77
2021/12/04 03:26:17;;;;;;;0.80;0.80;;;;;;;4.52;80.50;97759.72;5051456;28;20025;-77
2021/12/04 03:28:43;;;;;;;1.00;0.90;;;;;;;4.52;80.49;97764.94;5050810;28;20089;-77
2021/12/04 03:42:20;;;;;;;1.15;0.75;;;;;;;4.45;80.48;97740.13;5048314;28;20036;-77
2021/12/04 03:44:45;;;;;;;0.82;0.82;;;;;;;4.47;80.94;97747.88;5047887;28;20033;-77
2021/12/04 03:47:11;;;;;;;0.70;0.70;;;;;;;4.47;80.37;97745.28;5048706;28;20492;-76
2021/12/04 03:49:38;;;;;;;0.80;0.80;;;;;;;4.49;79.93;97741.66;5031930;28;20032;-77
2021/12/04 03:52:04;;;;;;;0.65;0.65;;;;;;;4.51;80.08;97741.56;5001653;28;20041;-76
2021/12/04 03:54:32;;;;;;;0.80;0.80;;;;;;;4.57;80.39;97745.59;5051240;28;20566;-77
2021/12/04 03:57:03;;;;;;;0.60;0.60;;;;;;;4.62;79.76;97748.78;5034455;28;20045;-76
2021/12/04 03:59:29;;;;;;;0.68;0.68;;;;;;;4.68;80.07;97748.44;5037507;28;20044;-76
2021/12/04 04:01:54;;;;;;;0.50;0.50;;;;;;;4.74;79.19;97748.91;5053505;28;20404;-77
2021/12/04 04:04:20;;;;;;;0.60;0.60;;;;;;;4.74;79.77;97745.44;5053592;28;20048;-76
2021/12/04 04:06:45;;;;;;;0.60;0.60;;;;;;;4.78;79.16;97728.69;5054523;28;20033;-75
2021/12/04 04:09:10;;;;;;;1.30;1.08;;;;;;;4.82;79.00;97730.16;5051708;28;20035;-75
2021/12/04 04:11:36;;;;;;;0.82;0.82;;;;;;;4.84;79.82;97736.13;5069101;28;20029;-75
2021/12/04 04:14:04;;;;;;;1.33;1.00;;;;;;;4.78;78.85;97730.47;5052799;28;20040;-75
2021/12/04 04:16:29;;;;;;;1.00;0.90;;;;;;;4.77;79.41;97731.38;5070541;28;20043;-76
2021/12/04 04:18:55;;;;;;;0.93;0.90;;;;;;;4.79;78.71;97738.19;5072578;28;20041;-76
2021/12/04 04:21:20;;;;;;;1.20;1.10;;;;;;;4.80;78.97;97746.84;5053980;28;20099;-77
2021/12/04 04:23:46;;;;;;;1.75;1.00;;;;;;;4.83;78.74;97747.53;5040751;28;20028;-77
2021/12/04 04:26:11;;;;;;;1.13;1.00;;;;;;;4.85;79.19;97744.81;5076486;28;20377;-76
2021/12/04 04:28:37;;;;;;;1.98;1.15;;;;;;;4.85;78.76;97730.00;5041426;28;20082;-76
2021/12/04 04:31:03;;;;;;;1.75;0.90;;;;;;;4.84;78.77;97728.31;5076133;28;20041;-76
2021/12/04 04:33:30;;;;;;;0.98;0.93;;;;;;;4.83;78.44;97723.19;5043300;28;20028;-76
2021/12/04 04:36:13;;;;;;;0.75;0.75;;;;;;;4.75;78.21;97715.81;5079902;28;20055;-76
2021/12/04 04:39:04;;;;;;;1.20;1.10;;;;;;;4.80;79.09;97720.75;5060130;28;20041;-76
2021/12/04 05:00:56;;;;;;;1.30;1.20;;;;;;;4.75;80.12;97723.66;5072605;28;20047;-75
2021/12/04 05:11:42;;;;;;;2.78;1.70;;;;;;;4.69;81.02;97716.16;5069812;28;20040;-76
2021/12/04 05:14:09;;;;;;;1.65;1.42;;;;;;;4.69;80.68;97719.63;5034551;28;20033;-77
2021/12/04 05:19:39;;;;;;;1.50;1.30;;;;;;;4.68;80.92;97723.16;5042010;28;20037;-75
2021/12/04 05:22:06;;;;;;;1.42;1.30;;;;;;;4.69;80.66;97722.22;5041160;28;20730;-76
2021/12/04 05:24:31;;;;;;;1.67;1.23;;;;;;;4.69;81.04;97724.84;5037009;28;20044;-76
2021/12/04 05:26:57;;;;;;;2.00;1.58;;;;;;;4.69;80.45;97722.22;5055143;28;20480;-78
2021/12/04 05:29:22;;;;;;;2.15;1.80;;;;;;;4.71;80.42;97716.94;5055173;28;20512;-76
2021/12/04 05:31:48;;;;;;;1.73;1.40;;;;;;;4.70;80.55;97721.31;5022050;28;20514;-76
2021/12/04 05:34:13;;;;;;;2.60;1.83;;;;;;;4.70;80.39;97718.69;5044019;28;20044;-77
2021/12/04 05:36:39;;;;;;;3.42;1.67;;;;;;;4.67;80.33;97716.25;5020979;28;20112;-77
2021/12/04 05:39:05;;;;;;;2.25;1.80;;;;;;;4.64;80.33;97713.81;5017327;28;20127;-75
2021/12/04 05:41:30;;;;;;;4.85;1.50;;;;;;;4.61;81.02;97713.19;5053061;28;20514;-78
2021/12/04 05:43:57;;;;;;;1.95;1.40;;;;;;;4.52;81.11;97719.75;5052799;28;20065;-75
2021/12/04 05:46:26;;;;;;;2.30;1.63;;;;;;;4.47;81.35;97719.19;5050661;28;20040;-74
2021/12/04 05:48:56;;;;;;;2.17;1.58;;;;;;;4.48;81.02;97708.66;5053626;28;20037;-75
2021/12/04 05:51:51;;;;;;;3.28;1.67;;;;;;;4.47;80.87;97708.75;5039114;28;20401;-78
2021/12/04 05:54:32;;;;;;;1.75;1.42;;;;;;;4.50;81.31;97698.13;5040315;28;20044;-76
2021/12/04 05:56:59;;;;;;;2.30;1.40;;;;;;;4.44;81.47;97682.84;5053791;28;20067;-74
2021/12/04 05:59:24;;;;;;;2.08;1.48;;;;;;;4.42;80.94;97675.09;5053874;28;20465;-75
2021/12/04 06:01:50;;;;;;;2.45;1.42;;;;;;;4.37;81.33;97669.31;5055358;28;20052;-77
2021/12/04 06:04:15;;;;;;;1.65;1.42;;;;;;;4.38;81.55;97672.75;5050836;28;20037;-75
2021/12/04 06:06:43;;;;;;;3.90;2.10;;;;;;;4.35;81.47;97679.00;5051783;28;20029;-75
2021/12/04 06:09:08;;;;;;;2.60;1.85;;;;;;;4.38;81.38;97689.28;5049190;28;20083;-76
2021/12/04 06:11:34;;;;;;;3.85;2.17;;;;;;;4.41;81.03;97693.47;5049689;28;20033;-76
2021/12/04 06:14:00;;;;;;;3.35;2.15;;;;;;;4.44;81.48;97677.63;5049783;28;20090;-76
2021/12/04 06:16:25;;;;;;;3.83;2.45;;;;;;;4.45;80.83;97690.56;5031420;28;20053;-76
2021/12/04 06:18:55;;;;;;;9.40;2.60;;;;;;;4.41;81.13;97694.31;5049939;28;20446;-76
2021/12/04 06:24:05;;;;;;;4.88;2.75;;;;;;;4.38;81.72;97689.28;5049348;28;20137;-76
2021/12/04 06:26:31;;;;;;;4.03;2.85;;;;;;;4.43;81.05;97686.38;5049141;28;20116;-75
2021/12/04 06:28:57;;;;;;;3.33;2.15;;;;;;;4.42;81.03;97675.09;5032380;28;20029;-76
2021/12/04 06:31:23;;;;;;;4.57;2.95;;;;;;;4.43;81.12;97681.16;5049667;28;20033;-76
2021/12/04 06:33:49;;;;;;;3.85;2.70;;;;;;;4.39;81.02;97685.72;5050082;28;20041;-75
2021/12/04 06:36:14;;;;;;;3.78;2.72;;;;;;;4.40;81.17;97690.00;5050920;28;20051;-75
2021/12/04 06:38:40;;;;;;;2.65;1.83;;;;;;;4.41;80.81;97693.47;5054740;28;20037;-75
2021/12/04 06:41:06;;;;;;;3.00;2.22;;;;;;;4.41;80.96;97693.47;5049970;28;20036;-77
2021/12/04 06:43:32;;;;;;;2.40;1.70;;;;;;;4.49;80.75;97693.84;5040992;28;20048;-77
2021/12/04 06:46:02;;;;;;;2.60;1.90;;;;;;;4.55;80.60;97690.88;5052459;28;20116;-77
2021/12/04 06:49:15;;;;;;;3.83;2.47;;;;;;;4.58;80.32;97692.47;5052183;28;20025;-76
2021/12/04 06:56:16;;;;;;;3.38;1.92;;;;;;;4.63;79.69;97686.06;5057771;28;20028;-75
2021/12/04 06:58:41;;;;;;;2.85;2.10;;;;;;;4.66;79.83;97687.66;5060197;28;20041;-76
2021/12/04 07:01:10;;;;;;;3.30;2.40;;;;;;;4.65;79.51;97683.34;5061427;28;20074;-77
2021/12/04 07:03:35;;;;;;;2.92;2.13;;;;;;;4.67;79.65;97690.16;5061079;28;20088;-76
2021/12/04 07:06:01;;;;;;;3.13;2.33;;;;;;;4.68;79.30;97680.56;5057373;28;20047;-75
2021/12/04 07:08:26;;;;;;;2.75;1.92;;;;;;;4.70;79.37;97689.13;5062388;28;20134;-75
2021/12/04 07:10:52;;;;;;;3.03;2.08;;;;;;;4.71;79.26;97696.03;5061564;28;20043;-76
2021/12/04 07:13:17;;;;;;;3.13;2.17;;;;;;;4.73;79.49;97681.13;5061353;28;20048;-76
2021/12/04 07:15:45;;;;;;;2.72;2.30;;;;;;;4.75;79.04;97692.34;5042987;28;20041;-76
2021/12/04 07:18:11;;;;;;;3.15;2.30;;;;;;;4.75;78.71;97689.72;5056350;28;20108;-77
2021/12/04 07:20:36;;;;;;;3.35;2.60;;;;;;;4.67;79.51;97689.31;5032726;28;20116;-77
2021/12/04 07:23:02;;;;;;;4.22;2.90;;;;;;;4.57;80.06;97696.84;5054132;28;20029;-75
2021/12/04 07:25:27;;;;;;;3.10;2.58;;;;;;;4.49;80.45;97705.13;5054593;28;20727;-77
2021/12/04 07:27:53;;;;;;;5.13;2.75;;;;;;;4.50;80.65;97709.44;5036690;28;20086;-77
2021/12/04 07:30:19;;;;;;;3.75;2.53;;;;;;;4.52;80.50;97702.31;5036709;28;20037;-76
2021/12/04 07:32:45;;;;;;;3.63;3.15;;;;;;;4.52;81.05;97698.88;5030995;28;20104;-75
2021/12/04 07:35:11;;;;;;;3.03;2.17;;;;;;;4.51;80.85;97699.81;5047423;28;20048;-77
2021/12/04 07:37:37;;;;;;;2.65;2.08;;;;;;;4.57;80.79;97701.22;5011683;28;20048;-75
2021/12/04 07:40:03;;;;;;;2.70;2.25;;;;;;;4.59;80.27;97694.16;5047750;28;20127;-76
2021/12/04 07:42:29;;;;;;;2.97;2.30;;;;;;;4.63;80.60;97695.66;5030522;28;20496;-74
2021/12/04 07:44:54;;;;;;;3.13;2.25;;;;;;;4.58;80.62;97687.25;5048244;28;20039;-77
2021/12/04 07:47:20;;;;;;;14.27;3.00;;;;;;;4.51;81.08;97695.44;5048658;28;20033;-76
2021/12/04 07:49:45;;;;;;;4.50;2.60;;;;;;;4.51;80.90;97694.59;5051505;28;20041;-75
2021/12/04 07:52:11;;;;;;;5.55;2.88;;;;;;;4.49;81.56;97693.84;5035000;28;20036;-75
2021/12/04 07:54:38;;;;;;;3.97;2.70;;;;;;;4.48;81.83;97693.03;5049034;28;20029;-74
2021/12/04 07:57:03;;;;;;;3.53;2.42;;;;;;;4.52;81.09;97691.88;5030010;28;20492;-75
2021/12/04 07:59:29;;;;;;;6.50;4.07;;;;;;;4.51;80.91;97684.16;5048369;28;20097;-75
2021/12/04 08:01:58;;;;;;;4.82;3.58;;;;;;;4.46;81.69;97689.66;5048457;28;20032;-77
2021/12/04 08:04:24;;;;;;;3.65;2.50;;;;;;;4.50;81.09;97688.56;5030176;28;20032;-77
2021/12/04 08:06:50;;;;;;;3.60;2.67;;;;;;;4.56;81.26;97687.34;5029777;28;20476;-76
2021/12/04 08:09:16;;;;;;;4.22;2.90;;;;;;;4.59;80.87;97683.72;5047874;28;20041;-76
2021/12/04 08:11:41;;;;;;;2.53;1.85;;;;;;;4.63;80.72;97683.44;5047571;28;20039;-76
2021/12/04 08:14:06;;;;;;;2.78;1.88;;;;;;;4.67;80.66;97673.66;5048004;28;20151;-76
2021/12/04 08:16:33;;;;;;;2.63;2.00;;;;;;;4.72;80.12;97663.78;5050695;28;20040;-78
2021/12/04 08:18:58;;;;;;;2.90;2.03;;;;;;;4.73;80.30;97662.88;5049903;28;20116;-79
2021/12/04 08:21:25;;;;;;;2.97;1.88;;;;;;;4.77;80.19;97663.50;5050141;28;20097;-77
2021/12/04 08:23:50;;;;;;;2.30;1.80;;;;;;;4.79;79.61;97667.72;5027624;28;20521;-76
2021/12/04 08:26:16;;;;;;;2.95;1.90;;;;;;;4.86;80.05;97662.97;5047097;28;20037;-76
2021/12/04 08:28:42;;;;;;;2.53;1.65;;;;;;;4.91;79.22;97668.75;5030175;28;20033;-77
2021/12/04 08:31:07;;;;;;;2.55;1.65;;;;;;;4.99;78.40;97671.72;5049861;28;20045;-76
2021/12/04 08:33:33;;;;;;;1.90;1.52;;;;;;;5.08;78.77;97670.34;5034440;28;20071;-70
2021/12/04 08:36:00;;;;;;;3.22;2.30;;;;;;;5.09;78.68;97666.78;5051155;28;20500;-69
2021/12/04 08:38:25;;;;;;;3.63;2.00;;;;;;;5.11;78.91;97659.69;5052128;28;20037;-70
2021/12/04 08:40:52;;;;;;;3.03;1.77;;;;;;;5.15;78.34;97659.41;5034289;28;20041;-69
2021/12/04 08:43:17;;;;;;;3.15;1.83;;;;;;;5.21;78.50;97655.59;5052442;28;20053;-70
2021/12/04 08:45:43;;;;;;;1.92;1.55;;;;;;;5.31;78.34;97653.25;5051739;28;20067;-70
2021/12/04 08:48:09;;;;;;;2.70;2.22;;;;;;;5.39;77.51;97651.00;5052106;28;20502;-70
2021/12/04 08:50:35;;;;;;;3.08;2.30;;;;;;;5.46;77.22;97654.06;5052732;28;20029;-70
2021/12/04 08:53:03;;;;;;;2.72;1.95;;;;;;;5.51;77.44;97657.22;5034114;28;20037;-70
2021/12/04 08:55:30;;;;;;;3.10;2.10;;;;;;;5.53;77.55;97650.13;5050957;28;20091;-69
2021/12/04 08:57:56;;;;;;;4.50;2.80;;;;;;;5.49;77.21;97648.63;5052038;28;22115;-69
2021/12/04 09:00:51;;;;;;;3.05;2.25;;;;;;;5.48;77.69;97646.97;5051401;28;20041;-69
2021/12/04 09:03:22;;;;;;;5.40;2.67;;;;;;;5.52;77.60;97653.69;5021222;28;20133;-72
2021/12/04 09:05:50;;;;;;;2.83;1.90;;;;;;;5.55;77.44;97649.09;5026918;28;20049;-69
2021/12/04 09:08:16;;;;;;;4.28;2.15;;;;;;;5.67;78.20;97639.63;5038944;28;20690;-69
2021/12/04 09:10:43;;;;;;;3.65;2.03;;;;;;;5.70;77.07;97643.84;5047421;28;20037;-71
2021/12/04 09:13:10;;;;;;;3.47;2.10;;;;;;;5.71;77.18;97646.34;5034363;28;20060;-69
2021/12/04 09:15:39;;;;;;;4.10;2.17;;;;;;;5.75;77.55;97637.38;5044215;28;20098;-71
2021/12/04 09:18:04;;;;;;;2.97;2.05;;;;;;;5.84;76.80;97624.66;5044569;28;20090;-69
2021/12/04 09:20:31;;;;;;;3.00;2.00;;;;;;;5.84;77.37;97622.88;5046361;28;20044;-71
2021/12/04 09:22:57;;;;;;;4.55;2.00;;;;;;;5.92;77.30;97611.91;5043766;28;20049;-75
2021/12/04 09:25:25;;;;;;;3.33;2.03;;;;;;;5.91;76.94;97616.31;5033355;28;20408;-76
2021/12/04 09:28:03;;;;;;;3.42;2.45;;;;;;;6.02;76.50;97619.06;5052773;28;20083;-77
2021/12/04 09:59:16;;;;;;;2.92;1.83;;;;;;;6.66;74.54;97595.59;5036925;28;20044;-77
2021/12/04 10:32:26;;;;;;;55.85;7.68;;;;;;;7.17;74.50;97544.09;5050818;28;20040;-75
2021/12/04 10:34:58;;;;;;;16.13;3.30;;;;;;;7.17;74.34;97533.63;5017029;28;20095;-76
2021/12/04 10:37:29;;;;;;;4.75;1.77;;;;;;;7.14;75.03;97524.19;5050454;28;20123;-76
2021/12/04 10:40:05;;;;;;;2.60;1.70;;;;;;;7.15;74.13;97511.91;5050470;28;20037;-76
2021/12/04 10:42:49;;;;;;;3.00;2.10;;;;;;;7.10;73.89;97499.97;5050230;28;20408;-76
2021/12/04 10:45:14;;;;;;;1.83;1.35;;;;;;;7.08;74.58;97494.00;5049619;28;20037;-77
2021/12/04 10:47:55;;;;;;;3.67;1.75;;;;;;;7.15;74.75;97483.94;5049959;28;20029;-76
2021/12/04 10:53:01;;;;;;;2.67;1.90;;;;;;;7.20;74.15;97467.88;5031048;28;20112;-76
2021/12/04 10:55:50;;;;;;;6.28;2.22;;;;;;;7.24;74.32;97451.00;5049489;28;20036;-76
2021/12/04 10:59:07;;;;;;;4.60;2.63;;;;;;;7.32;74.80;97444.22;5049062;28;20040;-75
2021/12/04 11:07:51;;;;;;;2.88;2.15;;;;;;;7.45;73.35;97441.53;5045068;28;20017;-75
2021/12/04 11:18:49;;;;;;;6.32;2.10;;;;;;;7.41;73.55;97416.50;5037007;28;20039;-77
2021/12/04 11:35:23;;;;;;;3.00;1.80;;;;;;;7.62;73.71;97379.13;5044744;28;20040;-77
2021/12/04 11:43:17;;;;;;;2.70;1.80;;;;;;;7.64;73.66;97375.44;5017066;28;20554;-79
2021/12/04 11:46:41;;;;;;;4.78;2.38;;;;;;;7.70;73.78;97369.75;5028212;28;20037;-78
2021/12/04 11:48:37;;;;;;;2.35;1.70;;;;;;;7.70;73.28;97371.50;5013187;28;20736;-77
2021/12/04 11:51:10;;;;;;;2.58;1.85;;;;;;;7.69;73.21;97370.69;5043819;28;20041;-76
2021/12/04 11:53:36;;;;;;;5.45;2.50;;;;;;;7.59;73.58;97358.41;5043724;28;20120;-75
2021/12/04 11:56:01;;;;;;;6.05;2.92;;;;;;;7.55;74.17;97368.28;5024764;28;20120;-76
2021/12/04 11:58:31;;;;;;;4.45;3.30;;;;;;;7.53;74.54;97363.16;5043415;28;20037;-76
2021/12/04 12:01:09;;;;;;;4.45;2.80;;;;;;;7.50;75.14;97363.38;5042979;28;20576;-76
2021/12/04 12:03:36;;;;;;;6.90;3.05;;;;;;;7.50;74.91;97362.53;5043112;28;20041;-75
2021/12/04 12:06:08;;;;;;;5.10;3.13;;;;;;;7.43;75.78;97361.34;5025789;28;20464;-78
2021/12/04 12:08:42;;;;;;;4.85;3.03;;;;;;;7.46;75.49;97366.38;5028982;28;20036;-78
2021/12/04 12:11:19;;;;;;;5.70;3.05;;;;;;;7.42;76.15;97364.91;5049198;28;20048;-77
2021/12/04 12:13:50;;;;;;;3.63;2.92;;;;;;;7.41;76.13;97361.47;5028713;28;20098;-77
2021/12/04 12:16:26;;;;;;;6.43;3.05;;;;;;;7.46;75.79;97361.13;5056402;28;20068;-77
2021/12/04 12:18:56;;;;;;;6.07;3.55;;;;;;;7.49;76.19;97369.59;5051952;28;20045;-75
2021/12/04 12:21:28;;;;;;;21.17;5.07;;;;;;;7.49;76.19;97371.38;5030264;28;20361;-76
2021/12/04 12:26:59;;;;;;;11.35;3.33;;;;;;;7.38;78.34;97374.78;5042225;28;20048;-75
2021/12/04 12:33:23;;;;;;;4.05;2.50;;;;;;;7.28;78.64;97377.25;5019773;28;20035;-76
2021/12/04 12:36:10;;;;;;;3.00;2.30;;;;;;;7.24;79.29;97367.13;5011040;28;20097;-76
2021/12/04 12:38:59;;;;;;;7.95;2.40;;;;;;;7.16;79.16;97364.22;5015611;28;20140;-76
2021/12/04 12:41:30;;;;;;;2.83;2.00;;;;;;;7.16;79.13;97359.84;5011942;28;20119;-76
2021/12/04 12:44:13;;;;;;;3.78;2.65;;;;;;;7.16;79.64;97364.22;5026322;28;20034;-77
2021/12/04 12:46:41;;;;;;;5.40;3.10;;;;;;;7.14;79.26;97369.59;5026063;28;20041;-76
2021/12/04 12:49:26;;;;;;;3.35;2.20;;;;;;;7.13;79.77;97373.16;5009180;28;20042;-78
2021/12/04 12:52:03;;;;;;;6.63;3.05;;;;;;;7.08;79.49;97364.81;5006448;28;20462;-77
2021/12/04 12:54:31;;;;;;;7.57;3.45;;;;;;;7.01;79.70;97367.03;5024842;28;20029;-76
2021/12/04 12:57:00;;;;;;;7.30;5.32;;;;;;;6.99;79.87;97363.72;5006501;28;20555;-77
2021/12/04 13:11:34;;;;;;;4.57;3.08;;;;;;;6.99;80.16;97368.09;5025152;28;20596;-76
2021/12/04 13:13:55;;;;;;;4.10;3.00;;;;;;;6.80;79.92;97350.28;5023302;28;20053;-76
2021/12/04 13:16:29;;;;;;;7.05;3.47;;;;;;;6.86;80.30;97349.84;5020667;28;20034;-77
2021/12/04 13:18:59;;;;;;;4.97;3.55;;;;;;;6.91;80.37;97344.25;5005015;28;20041;-77
2021/12/04 13:21:26;;;;;;;6.00;3.38;;;;;;;6.94;80.02;97351.88;5026377;28;20037;-76
2021/12/04 13:23:53;;;;;;;7.50;3.60;;;;;;;6.90;79.92;97353.06;5026001;28;20048;-76
2021/12/04 13:26:26;;;;;;;5.00;3.33;;;;;;;6.82;79.68;97348.41;5025980;28;20124;-77
2021/12/04 13:28:51;;;;;;;5.47;3.88;;;;;;;6.71;79.71;97358.81;5025796;28;20041;-76
2021/12/04 13:31:18;;;;;;;10.77;3.33;;;;;;;6.60;80.57;97370.91;5012934;28;20032;-79
2021/12/04 13:33:47;;;;;;;5.28;3.38;;;;;;;6.60;80.40;97378.75;5029890;28;20041;-76
2021/12/04 13:36:19;;;;;;;3.90;3.15;;;;;;;6.61;81.10;97372.56;5029074;28;20473;-77
2021/12/04 13:41:17;;;;;;;4.28;2.92;;;;;;;6.45;81.26;97400.78;5087076;28;20044;-76
2021/12/04 13:43:51;;;;;;;5.90;3.85;;;;;;;6.35;82.19;97407.59;5087274;28;20035;-78
2021/12/04 13:46:16;;;;;;;7.55;4.18;;;;;;;6.22;82.63;97411.06;5083192;28;20044;-76
2021/12/04 13:48:41;;;;;;;4.78;3.50;;;;;;;6.12;82.41;97409.22;5092183;28;20024;-77
2021/12/04 13:51:07;;;;;;;4.28;3.00;;;;;;;6.04;82.05;97419.38;5075762;28;20036;-76
2021/12/04 13:53:37;;;;;;;3.53;2.70;;;;;;;5.95;81.92;97434.75;5075039;28;20033;-76
2021/12/04 13:56:10;;;;;;;3.85;3.13;;;;;;;5.90;82.10;97442.03;5069246;28;20043;-76
2021/12/04 13:58:54;;;;;;;3.95;3.03;;;;;;;5.78;82.67;97448.09;5074673;28;20052;-76
2021/12/04 14:01:21;;;;;;;4.07;2.90;;;;;;;5.68;83.08;97444.44;5070999;28;20797;-78
2021/12/04 14:03:47;;;;;;;4.57;2.72;;;;;;;5.53;82.43;97456.75;5071254;28;20040;-77
2021/12/04 14:06:16;;;;;;;5.43;2.85;;;;;;;5.36;81.69;97461.28;5069903;28;20090;-78
2021/12/04 14:08:43;;;;;;;3.60;2.35;;;;;;;5.30;82.56;97468.72;5057596;28;20028;-72
2021/12/04 14:11:09;;;;;;;4.35;2.83;;;;;;;5.26;82.56;97473.28;5076021;28;20032;-70
2021/12/04 14:13:38;;;;;;;2.70;2.08;;;;;;;5.28;81.96;97468.78;5079067;28;20040;-69
2021/12/04 14:16:05;;;;;;;1.90;1.70;;;;;;;5.23;80.78;97477.88;5083264;28;20028;-72
2021/12/04 14:18:31;;;;;;;4.18;2.72;;;;;;;5.15;81.49;97470.53;5083815;28;20082;-70
2021/12/04 14:21:00;;;;;;;8.30;5.25;;;;;;;5.07;80.76;97467.56;5082771;28;20493;-71
2021/12/04 14:23:32;;;;;;;10.30;5.70;;;;;;;4.96;80.56;97476.09;5083737;28;20451;-71
2021/12/04 14:26:03;;;;;;;3.78;2.78;;;;;;;4.90;80.62;97469.50;5084929;28;20505;-70
2021/12/04 14:28:34;;;;;;;3.60;2.50;;;;;;;4.91;80.97;97465.94;5084572;28;20028;-70
2021/12/04 14:30:59;;;;;;;2.72;1.70;;;;;;;4.88;80.41;97481.81;5084375;28;20036;-70
2021/12/04 14:33:26;;;;;;;4.20;2.03;;;;;;;4.86;80.51;97485.44;5092524;28;20054;-77
2021/12/04 14:35:55;;;;;;;2.10;1.60;;;;;;;4.80;80.41;97491.03;5086688;28;20063;-77
2021/12/04 14:38:26;;;;;;;7.22;1.92;;;;;;;4.76;80.57;97482.56;5067281;28;20048;-76
2021/12/04 14:41:04;;;;;;;4.10;2.28;;;;;;;4.77;81.28;97484.25;5084956;28;20152;-75
2021/12/04 14:43:35;;;;;;;2.90;1.70;;;;;;;4.74;81.14;97487.06;5086288;28;20032;-76
2021/12/04 14:46:04;;;;;;;3.38;1.75;;;;;;;4.74;80.88;97487.88;5085743;28;20055;-76
2021/12/04 14:48:34;;;;;;;4.97;2.55;;;;;;;4.76;80.99;97487.78;5085921;28;20020;-76